sensor_id;sensor_type;location;lat;lon;timestamp;pressure;altitude;pressure_sealevel;temperature;humidity
80988;BME280;70452;39.386;-3.210;2023-06-10T00:00:57;94147.38;;;17.83;71.23
80988;BME280;70452;39.386;-3.210;2023-06-10T00:03:23;94149.66;;;17.81;71.42
80988;BME280;70452;39.386;-3.210;2023-06-10T00:05:49;94156.16;;;17.76;71.35
80988;BME280;70452;39.386;-3.210;2023-06-10T00:08:14;94147.09;;;17.67;71.56
80988;BME280;70452;39.386;-3.210;2023-06-10T00:10:45;94141.44;;;17.63;71.70
80988;BME280;70452;39.386;-3.210;2023-06-10T00:13:11;94148.09;;;17.62;71.87
80988;BME280;70452;39.386;-3.210;2023-06-10T00:15:38;94151.66;;;17.63;71.79
80988;BME280;70452;39.386;-3.210;2023-06-10T00:18:04;94149.69;;;17.63;71.70
80988;BME280;70452;39.386;-3.210;2023-06-10T00:20:30;94152.78;;;17.62;71.86
80988;BME280;70452;39.386;-3.210;2023-06-10T00:22:57;94148.09;;;17.62;72.58
80988;BME280;70452;39.386;-3.210;2023-06-10T00:25:25;94146.97;;;17.55;72.77
80988;BME280;70452;39.386;-3.210;2023-06-10T00:27:53;94144.88;;;17.52;72.98
80988;BME280;70452;39.386;-3.210;2023-06-10T00:30:20;94138.75;;;17.37;73.65
80988;BME280;70452;39.386;-3.210;2023-06-10T00:32:46;94141.69;;;17.23;74.46
80988;BME280;70452;39.386;-3.210;2023-06-10T00:35:12;94143.47;;;17.28;74.05
80988;BME280;70452;39.386;-3.210;2023-06-10T00:37:37;94138.94;;;17.23;74.36
80988;BME280;70452;39.386;-3.210;2023-06-10T00:40:04;94148.50;;;17.26;74.35
80988;BME280;70452;39.386;-3.210;2023-06-10T00:42:30;94146.41;;;17.23;74.45
80988;BME280;70452;39.386;-3.210;2023-06-10T00:44:56;94140.06;;;17.22;74.34
80988;BME280;70452;39.386;-3.210;2023-06-10T00:47:24;94142.50;;;17.24;74.57
80988;BME280;70452;39.386;-3.210;2023-06-10T00:49:51;94132.31;;;17.16;74.96
80988;BME280;70452;39.386;-3.210;2023-06-10T00:52:18;94137.47;;;17.17;74.51
80988;BME280;70452;39.386;-3.210;2023-06-10T00:54:45;94138.16;;;17.14;74.71
80988;BME280;70452;39.386;-3.210;2023-06-10T00:57:11;94140.91;;;17.14;74.43
80988;BME280;70452;39.386;-3.210;2023-06-10T00:59:42;94142.03;;;17.13;74.59
80988;BME280;70452;39.386;-3.210;2023-06-10T01:02:12;94133.63;;;17.10;74.87
80988;BME280;70452;39.386;-3.210;2023-06-10T01:04:38;94133.78;;;17.13;74.65
80988;BME280;70452;39.386;-3.210;2023-06-10T01:12:47;94136.34;;;17.27;74.76
80988;BME280;70452;39.386;-3.210;2023-06-10T01:15:16;94137.31;;;17.22;74.87
80988;BME280;70452;39.386;-3.210;2023-06-10T01:18:03;94126.28;;;17.22;75.57
80988;BME280;70452;39.386;-3.210;2023-06-10T01:20:31;94129.22;;;17.17;76.04
80988;BME280;70452;39.386;-3.210;2023-06-10T01:23:01;94116.13;;;17.14;76.64
80988;BME280;70452;39.386;-3.210;2023-06-10T01:25:36;94117.28;;;17.04;77.55
80988;BME280;70452;39.386;-3.210;2023-06-10T01:28:26;94110.81;;;16.92;78.22
80988;BME280;70452;39.386;-3.210;2023-06-10T01:33:41;94115.66;;;16.68;79.31
80988;BME280;70452;39.386;-3.210;2023-06-10T01:36:08;94111.78;;;16.61;79.83
80988;BME280;70452;39.386;-3.210;2023-06-10T01:38:47;94115.16;;;16.58;79.93
80988;BME280;70452;39.386;-3.210;2023-06-10T01:41:18;94110.16;;;16.60;79.91
80988;BME280;70452;39.386;-3.210;2023-06-10T01:43:46;94112.25;;;16.54;79.73
80988;BME280;70452;39.386;-3.210;2023-06-10T01:46:13;94108.88;;;16.57;79.74
80988;BME280;70452;39.386;-3.210;2023-06-10T01:48:38;94103.16;;;16.54;80.04
80988;BME280;70452;39.386;-3.210;2023-06-10T01:51:05;94114.53;;;16.52;79.92
80988;BME280;70452;39.386;-3.210;2023-06-10T01:53:30;94115.16;;;16.49;80.26
80988;BME280;70452;39.386;-3.210;2023-06-10T01:55:56;94106.59;;;16.50;79.92
80988;BME280;70452;39.386;-3.210;2023-06-10T01:58:22;94111.44;;;16.54;79.80
80988;BME280;70452;39.386;-3.210;2023-06-10T02:00:48;94106.28;;;16.52;79.95
80988;BME280;70452;39.386;-3.210;2023-06-10T02:03:14;94104.31;;;16.53;79.82
80988;BME280;70452;39.386;-3.210;2023-06-10T02:05:40;94103.00;;;16.50;80.35
80988;BME280;70452;39.386;-3.210;2023-06-10T02:08:05;94104.97;;;16.67;79.82
80988;BME280;70452;39.386;-3.210;2023-06-10T02:10:31;94100.25;;;16.59;79.93
80988;BME280;70452;39.386;-3.210;2023-06-10T02:12:57;94102.38;;;16.53;80.31
80988;BME280;70452;39.386;-3.210;2023-06-10T02:15:22;94110.47;;;16.49;80.52
80988;BME280;70452;39.386;-3.210;2023-06-10T02:17:48;94116.44;;;16.52;80.36
80988;BME280;70452;39.386;-3.210;2023-06-10T02:20:14;94112.41;;;16.49;80.56
80988;BME280;70452;39.386;-3.210;2023-06-10T02:22:40;94109.19;;;16.47;80.80
80988;BME280;70452;39.386;-3.210;2023-06-10T02:25:05;94110.63;;;16.44;80.75
80988;BME280;70452;39.386;-3.210;2023-06-10T02:27:31;94097.66;;;16.45;80.95
80988;BME280;70452;39.386;-3.210;2023-06-10T02:29:57;94098.97;;;16.47;80.67
80988;BME280;70452;39.386;-3.210;2023-06-10T02:32:23;94090.72;;;16.47;80.62
80988;BME280;70452;39.386;-3.210;2023-06-10T02:34:49;94094.59;;;16.46;80.73
80988;BME280;70452;39.386;-3.210;2023-06-10T02:37:16;94095.28;;;16.52;80.57
80988;BME280;70452;39.386;-3.210;2023-06-10T02:39:42;94103.84;;;16.50;80.75
80988;BME280;70452;39.386;-3.210;2023-06-10T02:42:07;94103.00;;;16.50;80.58
80988;BME280;70452;39.386;-3.210;2023-06-10T02:44:37;94099.47;;;16.49;80.57
80988;BME280;70452;39.386;-3.210;2023-06-10T02:47:03;94094.91;;;16.54;80.78
80988;BME280;70452;39.386;-3.210;2023-06-10T02:49:29;94094.59;;;16.55;80.24
80988;BME280;70452;39.386;-3.210;2023-06-10T02:51:54;94091.69;;;16.43;80.79
80988;BME280;70452;39.386;-3.210;2023-06-10T02:54:25;94093.78;;;16.37;81.16
80988;BME280;70452;39.386;-3.210;2023-06-10T02:56:51;94089.75;;;16.35;81.47
80988;BME280;70452;39.386;-3.210;2023-06-10T02:59:17;94081.66;;;16.38;81.24
80988;BME280;70452;39.386;-3.210;2023-06-10T03:01:43;94077.63;;;16.44;80.89
80988;BME280;70452;39.386;-3.210;2023-06-10T03:04:10;94077.78;;;16.48;80.61
80988;BME280;70452;39.386;-3.210;2023-06-10T03:06:39;94074.72;;;16.49;80.75
80988;BME280;70452;39.386;-3.210;2023-06-10T03:09:10;94074.06;;;16.53;80.62
80988;BME280;70452;39.386;-3.210;2023-06-10T03:11:36;94078.59;;;16.48;80.79
80988;BME280;70452;39.386;-3.210;2023-06-10T03:14:03;94076.81;;;16.53;80.69
80988;BME280;70452;39.386;-3.210;2023-06-10T03:16:31;94079.41;;;16.58;80.73
80988;BME280;70452;39.386;-3.210;2023-06-10T03:18:57;94090.56;;;16.61;80.36
80988;BME280;70452;39.386;-3.210;2023-06-10T03:21:23;94094.13;;;16.53;80.80
80988;BME280;70452;39.386;-3.210;2023-06-10T03:23:48;94094.75;;;16.59;80.68
80988;BME280;70452;39.386;-3.210;2023-06-10T03:26:14;94093.63;;;16.51;80.86
80988;BME280;70452;39.386;-3.210;2023-06-10T03:28:41;94092.16;;;16.45;80.70
80988;BME280;70452;39.386;-3.210;2023-06-10T03:31:06;94092.66;;;16.38;81.12
80988;BME280;70452;39.386;-3.210;2023-06-10T03:33:32;94099.28;;;16.37;80.98
80988;BME280;70452;39.386;-3.210;2023-06-10T03:35:58;94108.34;;;16.38;81.07
80988;BME280;70452;39.386;-3.210;2023-06-10T03:38:24;94100.75;;;16.43;80.50
80988;BME280;70452;39.386;-3.210;2023-06-10T03:40:49;94101.09;;;16.42;80.54
80988;BME280;70452;39.386;-3.210;2023-06-10T03:43:15;94110.28;;;16.37;80.40
80988;BME280;70452;39.386;-3.210;2023-06-10T03:45:40;94100.72;;;16.17;80.84
80988;BME280;70452;39.386;-3.210;2023-06-10T03:48:06;94099.44;;;16.23;80.91
80988;BME280;70452;39.386;-3.210;2023-06-10T03:50:34;94112.53;;;16.18;81.37
80988;BME280;70452;39.386;-3.210;2023-06-10T03:52:59;94114.63;;;16.21;81.09
80988;BME280;70452;39.386;-3.210;2023-06-10T03:55:25;94114.16;;;16.19;81.24
80988;BME280;70452;39.386;-3.210;2023-06-10T03:57:51;94108.31;;;16.20;81.20
80988;BME280;70452;39.386;-3.210;2023-06-10T04:00:18;94121.28;;;16.28;80.57
80988;BME280;70452;39.386;-3.210;2023-06-10T04:02:46;94120.13;;;16.21;81.08
80988;BME280;70452;39.386;-3.210;2023-06-10T04:05:13;94120.94;;;16.12;80.96
80988;BME280;70452;39.386;-3.210;2023-06-10T04:07:39;94124.63;;;16.08;81.44
80988;BME280;70452;39.386;-3.210;2023-06-10T04:10:07;94123.00;;;16.07;81.40
80988;BME280;70452;39.386;-3.210;2023-06-10T04:12:34;94123.63;;;16.04;81.44
80988;BME280;70452;39.386;-3.210;2023-06-10T04:15:00;94117.97;;;16.00;81.75
80988;BME280;70452;39.386;-3.210;2023-06-10T04:17:27;94109.25;;;15.98;81.89
80988;BME280;70452;39.386;-3.210;2023-06-10T04:19:53;94106.00;;;15.96;81.90
80988;BME280;70452;39.386;-3.210;2023-06-10T04:22:20;94110.03;;;15.90;82.18
80988;BME280;70452;39.386;-3.210;2023-06-10T04:24:46;94118.63;;;15.97;81.97
80988;BME280;70452;39.386;-3.210;2023-06-10T04:27:12;94114.56;;;15.94;82.19
80988;BME280;70452;39.386;-3.210;2023-06-10T04:29:37;94117.50;;;15.98;81.88
80988;BME280;70452;39.386;-3.210;2023-06-10T04:32:04;94118.94;;;15.96;81.73
80988;BME280;70452;39.386;-3.210;2023-06-10T04:34:32;94117.81;;;15.97;81.85
80988;BME280;70452;39.386;-3.210;2023-06-10T04:36:58;94125.88;;;15.93;81.92
80988;BME280;70452;39.386;-3.210;2023-06-10T04:39:23;94117.31;;;15.94;81.97
80988;BME280;70452;39.386;-3.210;2023-06-10T04:41:49;94113.13;;;15.97;81.83
80988;BME280;70452;39.386;-3.210;2023-06-10T04:44:15;94112.16;;;16.02;81.11
80988;BME280;70452;39.386;-3.210;2023-06-10T04:46:40;94121.72;;;16.04;81.38
80988;BME280;70452;39.386;-3.210;2023-06-10T04:49:06;94108.28;;;16.03;81.58
80988;BME280;70452;39.386;-3.210;2023-06-10T04:51:31;94118.66;;;16.06;81.35
80988;BME280;70452;39.386;-3.210;2023-06-10T04:53:58;94120.09;;;16.12;80.85
80988;BME280;70452;39.386;-3.210;2023-06-10T04:56:23;94130.16;;;16.17;80.96
80988;BME280;70452;39.386;-3.210;2023-06-10T04:58:49;94130.94;;;16.17;80.56
80988;BME280;70452;39.386;-3.210;2023-06-10T05:01:15;94120.59;;;16.14;80.72
80988;BME280;70452;39.386;-3.210;2023-06-10T05:03:42;94124.16;;;16.15;80.26
80988;BME280;70452;39.386;-3.210;2023-06-10T05:06:07;94122.22;;;16.15;80.46
80988;BME280;70452;39.386;-3.210;2023-06-10T05:08:35;94123.84;;;16.16;80.59
80988;BME280;70452;39.386;-3.210;2023-06-10T05:11:01;94133.38;;;16.19;80.21
80988;BME280;70452;39.386;-3.210;2023-06-10T05:13:27;94130.97;;;16.26;80.06
80988;BME280;70452;39.386;-3.210;2023-06-10T05:15:54;94126.94;;;16.23;80.15
80988;BME280;70452;39.386;-3.210;2023-06-10T05:18:19;94124.34;;;16.18;80.29
80988;BME280;70452;39.386;-3.210;2023-06-10T05:20:45;94121.59;;;16.18;80.29
80988;BME280;70452;39.386;-3.210;2023-06-10T05:23:10;94130.94;;;16.17;80.02
80988;BME280;70452;39.386;-3.210;2023-06-10T05:25:37;94128.03;;;16.13;80.24
80988;BME280;70452;39.386;-3.210;2023-06-10T05:28:03;94129.03;;;16.18;80.09
80988;BME280;70452;39.386;-3.210;2023-06-10T05:30:35;94125.94;;;16.19;80.16
80988;BME280;70452;39.386;-3.210;2023-06-10T05:33:00;94125.00;;;16.24;79.81
80988;BME280;70452;39.386;-3.210;2023-06-10T05:35:27;94124.84;;;16.29;79.64
80988;BME280;70452;39.386;-3.210;2023-06-10T05:37:55;94116.28;;;16.39;79.12
80988;BME280;70452;39.386;-3.210;2023-06-10T05:40:23;94117.41;;;16.38;79.21
80988;BME280;70452;39.386;-3.210;2023-06-10T05:42:48;94120.19;;;16.47;78.82
80988;BME280;70452;39.386;-3.210;2023-06-10T05:45:14;94119.19;;;16.43;79.58
80988;BME280;70452;39.386;-3.210;2023-06-10T05:47:40;94125.84;;;16.42;79.64
80988;BME280;70452;39.386;-3.210;2023-06-10T05:50:06;94123.25;;;16.54;79.33
80988;BME280;70452;39.386;-3.210;2023-06-10T05:52:36;94126.31;;;16.61;78.90
80988;BME280;70452;39.386;-3.210;2023-06-10T05:55:05;94134.41;;;16.66;78.84
80988;BME280;70452;39.386;-3.210;2023-06-10T05:57:31;94135.88;;;16.73;78.59
80988;BME280;70452;39.386;-3.210;2023-06-10T05:59:57;94136.53;;;16.78;78.27
80988;BME280;70452;39.386;-3.210;2023-06-10T06:02:23;94140.75;;;16.84;78.29
80988;BME280;70452;39.386;-3.210;2023-06-10T06:04:49;94143.19;;;16.86;78.22
80988;BME280;70452;39.386;-3.210;2023-06-10T06:07:15;94143.19;;;16.95;77.63
80988;BME280;70452;39.386;-3.210;2023-06-10T06:09:41;94145.44;;;16.93;78.02
80988;BME280;70452;39.386;-3.210;2023-06-10T06:12:10;94150.63;;;17.03;77.69
80988;BME280;70452;39.386;-3.210;2023-06-10T06:14:39;94151.94;;;17.05;77.68
80988;BME280;70452;39.386;-3.210;2023-06-10T06:17:06;94158.88;;;17.20;77.33
80988;BME280;70452;39.386;-3.210;2023-06-10T06:19:31;94160.13;;;17.49;76.29
80988;BME280;70452;39.386;-3.210;2023-06-10T06:22:00;94156.47;;;17.75;74.97
80988;BME280;70452;39.386;-3.210;2023-06-10T06:24:26;94160.91;;;18.35;73.26
80988;BME280;70452;39.386;-3.210;2023-06-10T06:26:51;94161.69;;;18.45;72.46
80988;BME280;70452;39.386;-3.210;2023-06-10T06:29:18;94162.78;;;18.23;73.43
80988;BME280;70452;39.386;-3.210;2023-06-10T06:31:43;94173.78;;;18.31;73.05
80988;BME280;70452;39.386;-3.210;2023-06-10T06:34:11;94174.66;;;18.14;73.73
80988;BME280;70452;39.386;-3.210;2023-06-10T06:36:37;94181.84;;;17.98;74.29
80988;BME280;70452;39.386;-3.210;2023-06-10T06:39:03;94185.16;;;17.74;75.39
80988;BME280;70452;39.386;-3.210;2023-06-10T06:41:31;94182.25;;;17.70;75.71
80988;BME280;70452;39.386;-3.210;2023-06-10T06:43:56;94187.00;;;17.61;76.17
80988;BME280;70452;39.386;-3.210;2023-06-10T06:46:22;94188.94;;;17.43;76.85
80988;BME280;70452;39.386;-3.210;2023-06-10T06:48:48;94182.47;;;17.48;77.18
80988;BME280;70452;39.386;-3.210;2023-06-10T06:51:14;94192.56;;;17.35;77.83
80988;BME280;70452;39.386;-3.210;2023-06-10T06:53:41;94191.56;;;17.39;77.83
80988;BME280;70452;39.386;-3.210;2023-06-10T06:56:10;94189.94;;;17.47;77.69
80988;BME280;70452;39.386;-3.210;2023-06-10T06:58:36;94192.81;;;17.59;77.58
80988;BME280;70452;39.386;-3.210;2023-06-10T07:01:02;94189.41;;;17.71;76.89
80988;BME280;70452;39.386;-3.210;2023-06-10T07:03:28;94192.28;;;17.75;77.03
80988;BME280;70452;39.386;-3.210;2023-06-10T07:05:54;94200.22;;;17.94;76.32
80988;BME280;70452;39.386;-3.210;2023-06-10T07:08:19;94205.03;;;18.06;76.03
80988;BME280;70452;39.386;-3.210;2023-06-10T07:10:46;94212.31;;;18.10;75.79
80988;BME280;70452;39.386;-3.210;2023-06-10T07:13:12;94209.38;;;18.07;76.08
80988;BME280;70452;39.386;-3.210;2023-06-10T07:15:39;94210.56;;;18.35;74.73
80988;BME280;70452;39.386;-3.210;2023-06-10T07:18:05;94208.22;;;18.55;74.37
80988;BME280;70452;39.386;-3.210;2023-06-10T07:20:31;94205.41;;;18.64;73.97
80988;BME280;70452;39.386;-3.210;2023-06-10T07:22:57;94203.97;;;18.58;74.21
80988;BME280;70452;39.386;-3.210;2023-06-10T07:25:23;94207.56;;;18.79;73.52
80988;BME280;70452;39.386;-3.210;2023-06-10T07:27:49;94204.50;;;19.23;72.25
80988;BME280;70452;39.386;-3.210;2023-06-10T07:30:15;94200.53;;;19.33;71.62
80988;BME280;70452;39.386;-3.210;2023-06-10T07:32:41;94205.63;;;20.59;67.11
80988;BME280;70452;39.386;-3.210;2023-06-10T07:35:14;94197.31;;;21.77;62.92
80988;BME280;70452;39.386;-3.210;2023-06-10T07:37:40;94194.19;;;22.39;60.62
80988;BME280;70452;39.386;-3.210;2023-06-10T07:40:07;94197.13;;;22.97;58.31
80988;BME280;70452;39.386;-3.210;2023-06-10T07:42:35;94204.97;;;22.92;58.66
80988;BME280;70452;39.386;-3.210;2023-06-10T07:45:00;94205.47;;;22.97;57.07
80988;BME280;70452;39.386;-3.210;2023-06-10T07:47:27;94208.09;;;23.06;55.87
80988;BME280;70452;39.386;-3.210;2023-06-10T07:49:53;94202.69;;;23.13;55.27
80988;BME280;70452;39.386;-3.210;2023-06-10T07:52:19;94199.25;;;23.98;52.94
80988;BME280;70452;39.386;-3.210;2023-06-10T07:54:45;94204.81;;;23.98;52.80
80988;BME280;70452;39.386;-3.210;2023-06-10T07:57:11;94204.00;;;24.40;52.22
80988;BME280;70452;39.386;-3.210;2023-06-10T07:59:36;94203.56;;;24.61;51.09
80988;BME280;70452;39.386;-3.210;2023-06-10T08:02:03;94200.22;;;24.75;50.70
80988;BME280;70452;39.386;-3.210;2023-06-10T08:04:29;94205.44;;;25.30;49.04
80988;BME280;70452;39.386;-3.210;2023-06-10T08:06:56;94200.09;;;25.82;47.57
80988;BME280;70452;39.386;-3.210;2023-06-10T08:09:23;94194.19;;;25.53;48.19
80988;BME280;70452;39.386;-3.210;2023-06-10T08:11:49;94186.22;;;25.86;47.17
80988;BME280;70452;39.386;-3.210;2023-06-10T08:14:15;94197.06;;;25.60;48.45
80988;BME280;70452;39.386;-3.210;2023-06-10T08:16:42;94197.91;;;25.07;48.84
80988;BME280;70452;39.386;-3.210;2023-06-10T08:19:08;94196.63;;;25.01;49.53
80988;BME280;70452;39.386;-3.210;2023-06-10T08:21:35;94197.28;;;25.18;49.30
80988;BME280;70452;39.386;-3.210;2023-06-10T08:24:02;94196.03;;;25.42;48.03
80988;BME280;70452;39.386;-3.210;2023-06-10T08:26:28;94204.72;;;25.67;48.18
80988;BME280;70452;39.386;-3.210;2023-06-10T08:28:54;94198.22;;;25.90;46.74
80988;BME280;70452;39.386;-3.210;2023-06-10T08:31:20;94207.59;;;26.05;46.76
80988;BME280;70452;39.386;-3.210;2023-06-10T08:33:46;94212.03;;;26.54;45.99
80988;BME280;70452;39.386;-3.210;2023-06-10T08:36:12;94213.88;;;27.28;43.67
80988;BME280;70452;39.386;-3.210;2023-06-10T08:38:38;94197.00;;;25.91;46.18
80988;BME280;70452;39.386;-3.210;2023-06-10T08:41:05;94199.84;;;25.03;48.18
80988;BME280;70452;39.386;-3.210;2023-06-10T08:43:33;94207.41;;;24.76;48.60
80988;BME280;70452;39.386;-3.210;2023-06-10T08:46:01;94207.88;;;24.12;49.92
80988;BME280;70452;39.386;-3.210;2023-06-10T08:48:30;94217.38;;;23.88;51.27
80988;BME280;70452;39.386;-3.210;2023-06-10T08:50:57;94215.31;;;23.85;51.36
80988;BME280;70452;39.386;-3.210;2023-06-10T08:53:23;94210.59;;;23.31;52.82
80988;BME280;70452;39.386;-3.210;2023-06-10T08:55:54;94211.78;;;23.49;52.29
80988;BME280;70452;39.386;-3.210;2023-06-10T08:58:24;94218.91;;;23.47;51.90
80988;BME280;70452;39.386;-3.210;2023-06-10T09:00:51;94220.41;;;23.44;51.36
80988;BME280;70452;39.386;-3.210;2023-06-10T09:03:19;94217.63;;;22.57;54.14
80988;BME280;70452;39.386;-3.210;2023-06-10T09:05:46;94221.84;;;22.35;55.40
80988;BME280;70452;39.386;-3.210;2023-06-10T09:08:11;94230.00;;;22.28;55.16
80988;BME280;70452;39.386;-3.210;2023-06-10T09:10:40;94218.66;;;23.00;52.71
80988;BME280;70452;39.386;-3.210;2023-06-10T09:13:06;94225.91;;;23.60;51.74
80988;BME280;70452;39.386;-3.210;2023-06-10T09:15:31;94223.06;;;24.38;49.20
80988;BME280;70452;39.386;-3.210;2023-06-10T09:17:57;94233.94;;;24.93;47.71
80988;BME280;70452;39.386;-3.210;2023-06-10T09:20:23;94232.38;;;24.49;47.99
80988;BME280;70452;39.386;-3.210;2023-06-10T09:22:49;94231.66;;;24.29;47.86
80988;BME280;70452;39.386;-3.210;2023-06-10T09:25:14;94237.47;;;24.01;49.33
80988;BME280;70452;39.386;-3.210;2023-06-10T09:27:48;94230.03;;;23.86;49.29
80988;BME280;70452;39.386;-3.210;2023-06-10T09:30:32;94231.38;;;24.81;47.01
80988;BME280;70452;39.386;-3.210;2023-06-10T09:33:00;94236.16;;;24.14;49.05
80988;BME280;70452;39.386;-3.210;2023-06-10T09:35:29;94236.16;;;23.56;50.58
80988;BME280;70452;39.386;-3.210;2023-06-10T09:37:56;94237.84;;;23.61;50.29
80988;BME280;70452;39.386;-3.210;2023-06-10T09:40:23;94232.78;;;23.66;50.41
80988;BME280;70452;39.386;-3.210;2023-06-10T09:42:55;94233.28;;;23.72;50.25
80988;BME280;70452;39.386;-3.210;2023-06-10T09:45:22;94231.81;;;23.58;50.05
80988;BME280;70452;39.386;-3.210;2023-06-10T09:47:52;94220.19;;;23.72;49.74
80988;BME280;70452;39.386;-3.210;2023-06-10T09:50:17;94223.78;;;23.92;49.47
80988;BME280;70452;39.386;-3.210;2023-06-10T09:52:45;94217.25;;;23.65;49.72
80988;BME280;70452;39.386;-3.210;2023-06-10T09:55:11;94216.53;;;22.78;52.51
80988;BME280;70452;39.386;-3.210;2023-06-10T09:57:37;94208.81;;;22.87;52.56
80988;BME280;70452;39.386;-3.210;2023-06-10T10:00:11;94214.44;;;23.07;51.55
80988;BME280;70452;39.386;-3.210;2023-06-10T10:02:48;94211.78;;;23.30;50.68
80988;BME280;70452;39.386;-3.210;2023-06-10T10:05:15;94214.72;;;23.56;49.91
80988;BME280;70452;39.386;-3.210;2023-06-10T10:07:42;94211.22;;;24.22;48.41
80988;BME280;70452;39.386;-3.210;2023-06-10T10:10:08;94213.22;;;24.21;48.18
80988;BME280;70452;39.386;-3.210;2023-06-10T10:12:36;94206.38;;;23.76;49.19
80988;BME280;70452;39.386;-3.210;2023-06-10T10:15:02;94203.81;;;23.67;49.79
80988;BME280;70452;39.386;-3.210;2023-06-10T10:17:27;94212.75;;;23.57;49.85
80988;BME280;70452;39.386;-3.210;2023-06-10T10:20:00;94209.06;;;23.53;50.11
80988;BME280;70452;39.386;-3.210;2023-06-10T10:22:39;94200.88;;;23.40;50.27
80988;BME280;70452;39.386;-3.210;2023-06-10T10:25:10;94201.69;;;23.41;50.01
80988;BME280;70452;39.386;-3.210;2023-06-10T10:28:02;94206.00;;;23.38;49.96
80988;BME280;70452;39.386;-3.210;2023-06-10T10:30:34;94209.00;;;23.69;48.96
80988;BME280;70452;39.386;-3.210;2023-06-10T10:33:40;94206.13;;;24.27;47.06
80988;BME280;70452;39.386;-3.210;2023-06-10T10:36:07;94207.56;;;24.41;46.91
80988;BME280;70452;39.386;-3.210;2023-06-10T10:38:34;94209.63;;;24.67;45.87
80988;BME280;70452;39.386;-3.210;2023-06-10T10:41:01;94212.63;;;24.55;44.81
80988;BME280;70452;39.386;-3.210;2023-06-10T10:43:28;94199.06;;;25.30;43.58
80988;BME280;70452;39.386;-3.210;2023-06-10T10:46:01;94200.16;;;25.86;41.75
80988;BME280;70452;39.386;-3.210;2023-06-10T10:48:38;94202.31;;;25.66;42.48
80988;BME280;70452;39.386;-3.210;2023-06-10T10:51:04;94206.94;;;26.18;41.64
80988;BME280;70452;39.386;-3.210;2023-06-10T10:53:30;94200.94;;;26.61;40.60
80988;BME280;70452;39.386;-3.210;2023-06-10T10:56:15;94200.47;;;26.52;40.10
80988;BME280;70452;39.386;-3.210;2023-06-10T10:59:02;94200.03;;;26.91;40.43
80988;BME280;70452;39.386;-3.210;2023-06-10T11:01:48;94188.75;;;27.36;43.73
80988;BME280;70452;39.386;-3.210;2023-06-10T11:04:20;94188.81;;;27.54;40.67
80988;BME280;70452;39.386;-3.210;2023-06-10T11:06:52;94197.47;;;28.04;42.46
80988;BME280;70452;39.386;-3.210;2023-06-10T11:09:28;94183.13;;;28.38;36.66
80988;BME280;70452;39.386;-3.210;2023-06-10T11:11:59;94183.22;;;26.87;37.76
80988;BME280;70452;39.386;-3.210;2023-06-10T11:14:30;94170.28;;;27.24;38.25
80988;BME280;70452;39.386;-3.210;2023-06-10T11:16:58;94169.88;;;27.25;36.91
80988;BME280;70452;39.386;-3.210;2023-06-10T11:19:37;94165.56;;;26.76;39.25
80988;BME280;70452;39.386;-3.210;2023-06-10T11:22:16;94154.59;;;26.08;39.20
80988;BME280;70452;39.386;-3.210;2023-06-10T11:24:50;94156.00;;;25.27;40.43
80988;BME280;70452;39.386;-3.210;2023-06-10T11:29:58;94151.78;;;25.40;42.84
80988;BME280;70452;39.386;-3.210;2023-06-10T11:32:51;94146.81;;;25.57;44.14
80988;BME280;70452;39.386;-3.210;2023-06-10T11:35:32;94139.16;;;25.84;40.45
80988;BME280;70452;39.386;-3.210;2023-06-10T11:38:01;94138.63;;;25.75;37.77
80988;BME280;70452;39.386;-3.210;2023-06-10T11:40:27;94141.16;;;26.25;37.52
80988;BME280;70452;39.386;-3.210;2023-06-10T11:42:55;94140.66;;;26.56;35.68
80988;BME280;70452;39.386;-3.210;2023-06-10T11:45:23;94146.91;;;26.91;36.87
80988;BME280;70452;39.386;-3.210;2023-06-10T11:47:59;94139.88;;;27.19;37.27
80988;BME280;70452;39.386;-3.210;2023-06-10T11:50:33;94141.78;;;27.84;37.26
80988;BME280;70452;39.386;-3.210;2023-06-10T11:53:08;94141.06;;;28.05;35.53
80988;BME280;70452;39.386;-3.210;2023-06-10T11:55:48;94141.50;;;28.22;34.27
80988;BME280;70452;39.386;-3.210;2023-06-10T11:58:15;94139.91;;;28.35;34.48
80988;BME280;70452;39.386;-3.210;2023-06-10T12:00:54;94139.09;;;29.07;33.91
80988;BME280;70452;39.386;-3.210;2023-06-10T12:03:23;94133.09;;;29.01;32.77
80988;BME280;70452;39.386;-3.210;2023-06-10T12:06:02;94132.56;;;29.53;32.90
80988;BME280;70452;39.386;-3.210;2023-06-10T12:08:29;94138.06;;;29.89;31.06
80988;BME280;70452;39.386;-3.210;2023-06-10T12:10:55;94128.13;;;30.40;30.34
80988;BME280;70452;39.386;-3.210;2023-06-10T12:13:22;94134.56;;;30.41;29.95
80988;BME280;70452;39.386;-3.210;2023-06-10T12:15:49;94133.41;;;30.83;29.42
80988;BME280;70452;39.386;-3.210;2023-06-10T12:18:19;94125.66;;;30.50;29.67
80988;BME280;70452;39.386;-3.210;2023-06-10T12:20:45;94126.53;;;30.39;30.21
80988;BME280;70452;39.386;-3.210;2023-06-10T12:23:11;94122.69;;;30.71;28.84
80988;BME280;70452;39.386;-3.210;2023-06-10T12:25:38;94121.34;;;30.87;28.86
80988;BME280;70452;39.386;-3.210;2023-06-10T12:28:09;94122.88;;;30.98;28.21
80988;BME280;70452;39.386;-3.210;2023-06-10T12:30:35;94121.72;;;30.89;28.71
80988;BME280;70452;39.386;-3.210;2023-06-10T12:33:02;94118.31;;;31.08;28.38
80988;BME280;70452;39.386;-3.210;2023-06-10T12:35:29;94110.78;;;31.01;27.91
80988;BME280;70452;39.386;-3.210;2023-06-10T12:37:59;94108.78;;;30.50;28.41
80988;BME280;70452;39.386;-3.210;2023-06-10T12:40:33;94099.84;;;30.65;27.76
80988;BME280;70452;39.386;-3.210;2023-06-10T12:43:00;94106.13;;;30.80;28.04
80988;BME280;70452;39.386;-3.210;2023-06-10T12:45:34;94095.56;;;30.92;28.19
80988;BME280;70452;39.386;-3.210;2023-06-10T12:50:35;94096.56;;;30.18;28.29
80988;BME280;70452;39.386;-3.210;2023-06-10T12:53:04;94103.88;;;28.80;30.24
80988;BME280;70452;39.386;-3.210;2023-06-10T12:55:31;94103.91;;;28.66;30.94
80988;BME280;70452;39.386;-3.210;2023-06-10T12:58:00;94100.19;;;29.34;30.67
80988;BME280;70452;39.386;-3.210;2023-06-10T13:00:29;94090.84;;;29.59;28.67
80988;BME280;70452;39.386;-3.210;2023-06-10T13:03:00;94102.03;;;29.73;28.82
80988;BME280;70452;39.386;-3.210;2023-06-10T13:05:27;94098.88;;;30.30;27.74
80988;BME280;70452;39.386;-3.210;2023-06-10T13:07:53;94103.09;;;30.60;27.21